Time;durP1;ratioP1;P1;durP2;ratioP2;P2;SDS_P1;SDS_P2;PMS_P1;PMS_P2;Temp;Humidity;BMP_temperature;BMP_pressure;BME280_temperature;BME280_humidity;BME280_pressure;Samples;Min_cycle;Max_cycle;Signal;HPM_P1;HPM_P2
2022/11/22 00:00:18;;;;;;;4.55;2.33;;;7.00;95.80;;;;;;5036194;28;20458;-68
2022/11/22 00:02:46;;;;;;;4.97;2.92;;;7.00;95.80;;;;;;5037536;28;20433;-67
2022/11/22 00:05:14;;;;;;;4.85;2.60;;;7.00;95.70;;;;;;5044754;28;20796;-69
2022/11/22 00:07:41;;;;;;;3.90;2.60;;;7.00;95.90;;;;;;5044070;28;20417;-68
2022/11/22 00:10:10;;;;;;;4.57;2.60;;;6.90;96.20;;;;;;5048293;28;20907;-68
2022/11/22 00:12:38;;;;;;;4.57;2.60;;;6.90;96.50;;;;;;5045557;28;20433;-69
2022/11/22 00:15:06;;;;;;;4.57;2.60;;;6.90;96.60;;;;;;5044871;28;20433;-69
2022/11/22 00:17:33;;;;;;;5.20;2.63;;;6.90;96.60;;;;;;5044629;28;20428;-67
2022/11/22 00:20:00;;;;;;;6.43;2.90;;;6.90;96.90;;;;;;5046237;28;20433;-68
2022/11/22 00:22:28;;;;;;;4.68;3.00;;;6.90;96.90;;;;;;5036608;28;20433;-69
2022/11/22 00:24:55;;;;;;;5.50;2.40;;;6.90;96.80;;;;;;5044301;28;20425;-67
2022/11/22 00:27:22;;;;;;;3.90;2.90;;;7.00;96.20;;;;;;5048203;28;20431;-68
2022/11/22 00:29:48;;;;;;;3.30;2.13;;;7.10;95.50;;;;;;5043415;28;20922;-67
2022/11/22 00:32:15;;;;;;;5.57;2.40;;;7.10;95.40;;;;;;5045245;28;20444;-67
2022/11/22 00:34:42;;;;;;;5.43;2.60;;;7.10;94.90;;;;;;5048676;28;20421;-67
2022/11/22 00:37:09;;;;;;;3.25;2.30;;;7.10;95.10;;;;;;5037667;28;20936;-69
2022/11/22 00:39:37;;;;;;;4.30;2.20;;;7.10;95.30;;;;;;5047745;28;20421;-68
2022/11/22 00:42:04;;;;;;;4.20;2.50;;;7.10;95.50;;;;;;5044643;28;20433;-67
2022/11/22 00:44:31;;;;;;;3.20;2.10;;;7.10;95.60;;;;;;5041509;28;20426;-68
2022/11/22 00:46:58;;;;;;;3.53;2.38;;;7.10;95.80;;;;;;5044331;28;20500;-68
2022/11/22 00:49:24;;;;;;;4.00;2.50;;;7.00;96.10;;;;;;5047967;28;20440;-69
2022/11/22 00:51:51;;;;;;;3.75;2.50;;;7.00;96.30;;;;;;5046531;28;20444;-68
2022/11/22 00:54:18;;;;;;;4.82;2.50;;;7.00;96.20;;;;;;5045985;28;20460;-68
2022/11/22 00:56:46;;;;;;;3.53;2.60;;;7.00;96.00;;;;;;5046030;28;20431;-69
2022/11/22 00:59:12;;;;;;;3.73;2.40;;;7.00;96.00;;;;;;5042734;28;20437;-69
2022/11/22 01:01:39;;;;;;;3.78;2.50;;;7.00;96.10;;;;;;5047539;28;20514;-68
2022/11/22 01:04:06;;;;;;;5.28;2.47;;;7.00;96.10;;;;;;5046371;28;20413;-67
2022/11/22 01:06:33;;;;;;;3.17;2.40;;;7.00;96.30;;;;;;5045897;28;20425;-68
2022/11/22 01:09:00;;;;;;;5.93;2.50;;;7.00;96.40;;;;;;5047081;28;20440;-69
2022/11/22 01:11:26;;;;;;;4.32;2.90;;;7.00;96.50;;;;;;5045354;28;20440;-69
2022/11/22 01:13:54;;;;;;;4.07;2.80;;;6.90;96.60;;;;;;5040162;28;20492;-68
2022/11/22 01:16:21;;;;;;;4.43;2.90;;;7.00;96.70;;;;;;5047229;28;20420;-69
2022/11/22 01:18:48;;;;;;;2.70;2.50;;;6.90;96.70;;;;;;5047036;28;20422;-69
2022/11/22 01:21:15;;;;;;;4.60;3.00;;;7.00;96.70;;;;;;5046169;28;20429;-68
2022/11/22 01:23:41;;;;;;;3.80;2.20;;;6.90;96.80;;;;;;5041624;28;20422;-69
2022/11/22 01:26:09;;;;;;;4.40;2.40;;;6.90;96.70;;;;;;5041617;28;20425;-68
2022/11/22 01:28:37;;;;;;;3.30;2.50;;;6.80;96.60;;;;;;5036947;28;20788;-68
2022/11/22 01:31:05;;;;;;;3.33;2.60;;;6.80;96.80;;;;;;5042029;28;20424;-69
2022/11/22 01:33:32;;;;;;;6.30;2.80;;;6.80;96.90;;;;;;5035578;28;20434;-68
2022/11/22 01:35:59;;;;;;;5.18;2.60;;;6.70;97.10;;;;;;5040846;28;20448;-68
2022/11/22 01:38:26;;;;;;;4.70;2.85;;;6.70;97.30;;;;;;5039672;28;20436;-68
2022/11/22 01:40:52;;;;;;;4.97;2.75;;;6.70;97.20;;;;;;5044921;28;20823;-68
2022/11/22 01:43:21;;;;;;;4.37;2.30;;;6.70;97.00;;;;;;5045258;28;20511;-69
2022/11/22 01:45:52;;;;;;;3.93;2.53;;;6.70;97.00;;;;;;5039664;28;20922;-69
2022/11/22 01:48:44;;;;;;;3.45;2.60;;;6.70;97.00;;;;;;5047147;28;20465;-69
2022/11/22 01:51:17;;;;;;;3.92;2.65;;;6.60;97.20;;;;;;5045454;28;20468;-69
2022/11/22 01:53:44;;;;;;;5.32;2.50;;;6.60;97.20;;;;;;5041007;28;20930;-69
2022/11/22 01:56:14;;;;;;;4.43;2.70;;;6.60;97.30;;;;;;5040319;28;20409;-68
2022/11/22 01:58:44;;;;;;;4.70;2.55;;;6.60;97.40;;;;;;5049468;28;20440;-68
2022/11/22 02:01:11;;;;;;;4.60;2.00;;;6.60;97.20;;;;;;5050906;28;20447;-69
2022/11/22 02:03:44;;;;;;;2.97;2.03;;;6.60;97.00;;;;;;5050527;28;20421;-68
2022/11/22 02:06:12;;;;;;;2.78;2.15;;;6.60;97.00;;;;;;5050114;28;20429;-68
2022/11/22 02:08:43;;;;;;;3.63;2.60;;;6.60;97.10;;;;;;5043584;28;20434;-69
2022/11/22 02:11:12;;;;;;;3.25;2.30;;;6.60;97.10;;;;;;5048632;28;20427;-70
2022/11/22 02:13:42;;;;;;;4.10;2.10;;;6.50;97.30;;;;;;5049980;28;20424;-69
2022/11/22 02:16:10;;;;;;;2.80;2.10;;;6.50;97.50;;;;;;5051121;28;20416;-70
2022/11/22 02:18:38;;;;;;;3.70;2.57;;;6.40;97.60;;;;;;5051340;28;20534;-68
2022/11/22 02:21:07;;;;;;;3.45;2.30;;;6.40;97.70;;;;;;5050396;28;20941;-69
2022/11/22 02:23:43;;;;;;;3.70;2.60;;;6.40;97.70;;;;;;5044317;28;20667;-70
2022/11/22 02:26:12;;;;;;;2.50;2.20;;;6.50;97.60;;;;;;5045791;28;20461;-69
2022/11/22 02:28:40;;;;;;;3.10;2.00;;;6.50;97.60;;;;;;5045649;28;20423;-68
2022/11/22 02:31:07;;;;;;;4.97;2.53;;;6.40;97.50;;;;;;5049436;28;20460;-66
2022/11/22 02:33:34;;;;;;;3.30;2.50;;;6.40;97.70;;;;;;5049645;28;20780;-69
2022/11/22 02:36:01;;;;;;;3.72;2.25;;;6.40;97.80;;;;;;5048281;28;20534;-69
2022/11/22 02:38:32;;;;;;;3.33;1.90;;;6.30;97.90;;;;;;5048878;28;20854;-69
2022/11/22 02:41:02;;;;;;;3.25;2.20;;;6.30;97.90;;;;;;5041545;28;20424;-70
2022/11/22 02:43:33;;;;;;;3.45;2.28;;;6.30;98.00;;;;;;5043459;28;20461;-69
2022/11/22 02:46:04;;;;;;;2.35;1.90;;;6.30;98.00;;;;;;5046515;28;20769;-69
2022/11/22 02:48:31;;;;;;;4.45;2.40;;;6.30;98.10;;;;;;5034067;28;20912;-69
2022/11/22 02:50:58;;;;;;;4.03;2.28;;;6.30;98.10;;;;;;5049288;28;20938;-69
2022/11/22 02:53:25;;;;;;;3.63;2.10;;;6.30;98.10;;;;;;5047521;28;20440;-70
2022/11/22 02:55:52;;;;;;;2.20;1.90;;;6.30;98.10;;;;;;5046669;28;20425;-68
2022/11/22 02:58:19;;;;;;;3.50;1.95;;;6.30;98.20;;;;;;5049967;28;20424;-69
2022/11/22 03:00:47;;;;;;;2.93;1.90;;;6.30;98.20;;;;;;5049146;28;20425;-70
2022/11/22 03:03:14;;;;;;;2.30;1.67;;;6.30;98.20;;;;;;5049135;28;20424;-68
2022/11/22 03:05:40;;;;;;;2.27;1.90;;;6.30;98.20;;;;;;5040013;28;20439;-68
2022/11/22 03:08:07;;;;;;;2.75;1.80;;;6.20;98.30;;;;;;5037309;28;20449;-70
2022/11/22 03:10:34;;;;;;;2.85;1.70;;;6.20;98.30;;;;;;5044582;28;20424;-69
2022/11/22 03:13:00;;;;;;;4.10;1.65;;;6.20;98.30;;;;;;5048756;28;20424;-70
2022/11/22 03:15:27;;;;;;;3.70;2.20;;;6.20;98.30;;;;;;5049428;28;20428;-70
2022/11/22 03:17:59;;;;;;;3.10;1.90;;;6.20;98.30;;;;;;5048588;28;20544;-69
2022/11/22 03:20:26;;;;;;;3.33;1.90;;;6.30;98.10;;;;;;5040366;28;20435;-70
2022/11/22 03:22:53;;;;;;;3.20;1.80;;;6.40;97.90;;;;;;5037562;28;20433;-69
2022/11/22 03:25:20;;;;;;;3.60;1.90;;;6.40;97.80;;;;;;5043246;28;20502;-70
2022/11/22 03:27:47;;;;;;;3.40;1.90;;;6.30;97.60;;;;;;5056676;22;20453;-75
2022/11/22 03:30:14;;;;;;;4.28;2.20;;;6.40;97.60;;;;;;5042705;28;20421;-76
2022/11/22 03:32:41;;;;;;;4.78;2.00;;;6.40;97.30;;;;;;5044329;28;20929;-76
2022/11/22 03:35:10;;;;;;;5.20;1.95;;;6.40;97.40;;;;;;5044629;28;20441;-76
2022/11/22 03:37:37;;;;;;;5.15;2.40;;;6.50;96.80;;;;;;5027923;28;20923;-76
2022/11/22 03:40:04;;;;;;;4.73;1.90;;;6.50;96.50;;;;;;5020356;28;20450;-76
2022/11/22 03:42:31;;;;;;;7.25;2.10;;;6.50;96.30;;;;;;5015507;28;20428;-76
2022/11/22 03:44:58;;;;;;;4.85;1.70;;;6.50;96.40;;;;;;5019104;28;20446;-76
2022/11/22 03:47:24;;;;;;;5.80;2.20;;;6.40;96.40;;;;;;5019291;28;20479;-76
2022/11/22 03:49:51;;;;;;;4.75;2.22;;;6.40;96.30;;;;;;5011018;28;20759;-76
2022/11/22 03:52:19;;;;;;;5.10;2.45;;;6.40;96.30;;;;;;5024523;28;20438;-76
2022/11/22 03:54:46;;;;;;;3.97;1.80;;;6.40;96.20;;;;;;5016873;28;20440;-75
2022/11/22 03:57:13;;;;;;;4.45;2.10;;;6.40;96.30;;;;;;5024236;28;20433;-76
2022/11/22 03:59:39;;;;;;;5.90;2.10;;;6.30;96.30;;;;;;5024938;28;20453;-76
2022/11/22 04:02:06;;;;;;;5.03;2.00;;;6.30;96.40;;;;;;5025417;28;20435;-76
2022/11/22 04:04:33;;;;;;;3.83;2.00;;;6.30;96.50;;;;;;5024597;28;20418;-76
2022/11/22 04:07:00;;;;;;;5.28;2.20;;;6.30;96.50;;;;;;5023271;28;20442;-76
2022/11/22 04:09:28;;;;;;;4.85;2.22;;;6.20;96.50;;;;;;5015080;28;20441;-78
2022/11/22 04:11:54;;;;;;;5.32;2.63;;;6.20;96.60;;;;;;5016952;28;20886;-76
2022/11/22 04:17:05;;;;;;;5.00;2.80;;;6.10;96.80;;;;;;5017833;28;20417;-76
2022/11/22 04:19:32;;;;;;;5.20;2.55;;;6.10;96.90;;;;;;5025997;28;20417;-76
2022/11/22 04:21:58;;;;;;;4.95;2.20;;;6.10;96.90;;;;;;5025420;28;20433;-76
2022/11/22 04:27:10;;;;;;;6.90;2.30;;;6.10;97.00;;;;;;5044492;28;20505;-76
2022/11/22 04:29:37;;;;;;;7.13;2.25;;;6.10;96.90;;;;;;5031133;28;20429;-76
2022/11/22 04:34:48;;;;;;;5.22;2.40;;;6.10;96.70;;;;;;5024743;28;20452;-76
2022/11/22 04:37:15;;;;;;;7.65;2.60;;;6.10;96.80;;;;;;5023284;28;20442;-76
2022/11/22 04:39:42;;;;;;;5.18;2.35;;;6.10;96.80;;;;;;5010270;28;20488;-76
2022/11/22 04:44:55;;;;;;;3.78;2.20;;;6.00;97.00;;;;;;5024434;28;20439;-76
2022/11/22 04:52:52;;;;;;;5.25;2.80;;;6.00;97.00;;;;;;5015316;28;20553;-76
2022/11/22 04:52:55;;;;;;;4.27;2.40;;;5.90;97.00;;;;;;5017841;28;20530;-76
2022/11/22 04:55:22;;;;;;;7.88;2.63;;;5.90;97.00;;;;;;5014648;28;20743;-76
2022/11/22 04:57:50;;;;;;;6.65;2.30;;;5.90;97.20;;;;;;5023727;28;20479;-76
2022/11/22 05:00:17;;;;;;;6.10;2.25;;;5.90;97.40;;;;;;5023308;28;20445;-76
2022/11/22 05:02:44;;;;;;;6.50;2.60;;;5.90;97.10;;;;;;5015079;28;21063;-75
2022/11/22 05:05:11;;;;;;;6.03;2.38;;;5.90;96.90;;;;;;5024297;28;20439;-76
2022/11/22 05:07:38;;;;;;;4.93;2.45;;;5.90;96.70;;;;;;5015065;28;20891;-77
2022/11/22 05:10:05;;;;;;;7.78;2.50;;;5.90;96.60;;;;;;5018209;28;20984;-76
2022/11/22 05:12:32;;;;;;;5.20;2.40;;;6.00;96.30;;;;;;5010146;28;20438;-76
2022/11/22 05:15:00;;;;;;;8.10;3.33;;;6.00;96.00;;;;;;5020874;28;20530;-76
2022/11/22 05:17:27;;;;;;;6.68;2.40;;;6.00;96.00;;;;;;5023537;28;20419;-77
2022/11/22 05:19:54;;;;;;;7.65;2.40;;;6.00;95.80;;;;;;5022939;28;20915;-78
2022/11/22 05:23:53;;;;;;;11.68;3.20;;;6.00;95.90;;;;;;5017844;28;20466;-75
2022/11/22 05:25:08;;;;;;;6.22;2.60;;;5.90;95.70;;;;;;5021073;28;20959;-76
2022/11/22 05:27:34;;;;;;;8.75;2.80;;;5.90;95.80;;;;;;5017090;28;20438;-77
2022/11/22 05:30:03;;;;;;;5.97;2.40;;;5.90;95.90;;;;;;5024052;28;20422;-76
2022/11/22 05:32:30;;;;;;;6.57;2.87;;;5.90;95.80;;;;;;5018038;28;20504;-76
2022/11/22 05:34:57;;;;;;;7.50;3.30;;;5.90;95.90;;;;;;5022594;28;20434;-76
2022/11/22 05:37:24;;;;;;;7.85;2.80;;;5.80;95.90;;;;;;5017074;28;20446;-76
2022/11/22 05:39:50;;;;;;;6.80;2.72;;;5.80;96.10;;;;;;5012281;28;20421;-77
2022/11/22 05:42:17;;;;;;;7.90;2.60;;;5.80;96.00;;;;;;5025792;28;20932;-75
2022/11/22 05:44:44;;;;;;;7.47;2.70;;;5.80;96.00;;;;;;5023647;28;20515;-75
2022/11/22 05:47:12;;;;;;;8.82;2.80;;;5.80;95.90;;;;;;5020973;28;20456;-77
2022/11/22 05:49:39;;;;;;;5.83;2.50;;;5.90;95.50;;;;;;5023379;28;20438;-76
2022/11/22 05:52:07;;;;;;;8.50;3.20;;;5.90;95.00;;;;;;5024877;28;20815;-76
2022/11/22 05:54:34;;;;;;;8.63;3.10;;;6.00;94.80;;;;;;5024859;28;20515;-78
2022/11/22 05:57:01;;;;;;;6.90;2.70;;;6.00;95.10;;;;;;5022466;28;20427;-77
2022/11/22 05:59:27;;;;;;;9.70;3.35;;;6.00;94.60;;;;;;5022343;28;20946;-78
2022/11/22 06:01:54;;;;;;;7.78;3.17;;;5.90;94.50;;;;;;5018336;28;20442;-76
2022/11/22 06:04:22;;;;;;;7.93;2.55;;;5.90;94.50;;;;;;5016033;28;20518;-76
2022/11/22 06:06:49;;;;;;;7.82;3.45;;;5.90;94.60;;;;;;5019727;28;20441;-77
2022/11/22 06:09:16;;;;;;;7.30;3.20;;;5.90;94.40;;;;;;5026995;28;20418;-77
2022/11/22 06:11:42;;;;;;;6.57;2.80;;;5.90;94.20;;;;;;5022541;28;20437;-77
2022/11/22 06:14:09;;;;;;;8.80;3.20;;;5.90;94.10;;;;;;5018944;28;20426;-77
2022/11/22 06:16:36;;;;;;;8.85;3.00;;;5.90;93.70;;;;;;5022636;28;20435;-77
2022/11/22 06:19:03;;;;;;;7.75;3.05;;;6.00;93.00;;;;;;5022021;28;21253;-77
2022/11/22 06:21:31;;;;;;;8.75;3.90;;;6.00;92.90;;;;;;5022292;28;20439;-78
2022/11/22 06:23:58;;;;;;;8.90;3.08;;;5.90;92.90;;;;;;5019028;28;20513;-78
2022/11/22 06:26:25;;;;;;;7.35;3.20;;;5.90;93.10;;;;;;5026322;28;20454;-77
2022/11/22 06:28:53;;;;;;;9.70;3.63;;;5.90;93.10;;;;;;5021727;28;20430;-77
2022/11/22 06:31:23;;;;;;;8.95;3.30;;;5.90;93.10;;;;;;5017177;28;20459;-77
2022/11/22 06:33:50;;;;;;;7.85;3.10;;;5.90;93.10;;;;;;5022869;28;20473;-78
2022/11/22 06:36:19;;;;;;;7.63;2.85;;;5.80;93.00;;;;;;5021302;28;20442;-77
2022/11/22 06:38:47;;;;;;;9.13;3.72;;;5.90;92.90;;;;;;5026158;28;20423;-62
2022/11/22 06:41:15;;;;;;;8.68;3.20;;;5.90;93.00;;;;;;5019647;28;20494;-62
2022/11/22 06:43:44;;;;;;;6.47;2.92;;;6.00;93.00;;;;;;5018219;28;20431;-78
2022/11/22 06:46:12;;;;;;;5.97;3.03;;;6.10;92.50;;;;;;5020045;28;20432;-79
2022/11/22 06:48:40;;;;;;;7.10;3.22;;;6.00;92.50;;;;;;5018129;28;20538;-77
2022/11/22 06:51:10;;;;;;;5.40;2.70;;;6.00;92.70;;;;;;5024181;28;20446;-77
2022/11/22 06:53:37;;;;;;;6.82;3.40;;;6.00;92.70;;;;;;5027409;28;20434;-77
2022/11/22 06:56:07;;;;;;;7.35;3.13;;;6.00;92.70;;;;;;5020981;28;20486;-80
2022/11/22 06:58:34;;;;;;;5.90;2.40;;;6.00;92.90;;;;;;5025599;28;20430;-78
2022/11/22 07:01:01;;;;;;;7.05;3.00;;;6.00;93.30;;;;;;5018618;28;20436;-77
2022/11/22 07:03:28;;;;;;;7.28;2.70;;;6.00;93.40;;;;;;5019070;28;20434;-78
2022/11/22 07:05:55;;;;;;;7.07;3.17;;;6.00;93.50;;;;;;5018385;28;20548;-77
2022/11/22 07:08:22;;;;;;;8.02;3.10;;;6.00;93.70;;;;;;5014847;28;20550;-75
2022/11/22 07:10:49;;;;;;;5.40;2.60;;;6.00;93.90;;;;;;5016172;28;20462;-77
2022/11/22 07:13:18;;;;;;;6.57;2.97;;;6.00;94.00;;;;;;5019963;28;20446;-77
2022/11/22 07:15:53;;;;;;;8.38;2.90;;;6.00;93.90;;;;;;5018035;28;20490;-77
2022/11/22 07:18:20;;;;;;;6.53;3.50;;;6.00;93.80;;;;;;5022571;28;20462;-77
2022/11/22 07:20:47;;;;;;;8.07;2.80;;;6.10;93.70;;;;;;5024633;28;20446;-77
2022/11/22 07:23:14;;;;;;;6.97;2.83;;;6.00;93.60;;;;;;5013967;28;20454;-77
2022/11/22 07:25:44;;;;;;;5.90;2.65;;;6.00;93.50;;;;;;5021812;28;20423;-77
2022/11/22 07:28:11;;;;;;;6.70;2.90;;;6.00;93.50;;;;;;5023199;28;20433;-75
2022/11/22 07:30:39;;;;;;;7.68;2.80;;;6.00;93.20;;;;;;5020103;28;20427;-75
2022/11/22 07:33:07;;;;;;;7.13;2.63;;;6.00;92.90;;;;;;5025937;28;20423;-75
2022/11/22 07:35:34;;;;;;;6.28;2.80;;;6.10;92.80;;;;;;5025498;28;20414;-75
2022/11/22 07:38:01;;;;;;;6.25;2.60;;;6.10;93.00;;;;;;5017381;28;20431;-75
2022/11/22 07:40:28;;;;;;;6.88;2.38;;;6.10;93.00;;;;;;5017195;28;20420;-77
2022/11/22 07:42:55;;;;;;;6.70;2.70;;;6.10;92.80;;;;;;5023765;28;20418;-77
2022/11/22 07:45:22;;;;;;;7.50;2.95;;;6.10;92.90;;;;;;5026237;28;20762;-77
2022/11/22 07:47:50;;;;;;;6.32;2.35;;;6.20;92.70;;;;;;5026341;28;20427;-77
2022/11/22 07:50:17;;;;;;;6.97;3.03;;;6.30;92.30;;;;;;5021173;28;20447;-77
2022/11/22 07:52:44;;;;;;;6.55;2.40;;;6.30;92.30;;;;;;5014081;28;20426;-77
2022/11/22 07:55:11;;;;;;;6.30;2.70;;;6.40;92.00;;;;;;5021222;28;20459;-77
2022/11/22 07:57:38;;;;;;;7.05;2.55;;;6.40;91.90;;;;;;5018663;28;20437;-77
2022/11/22 08:00:06;;;;;;;6.45;2.78;;;6.50;91.60;;;;;;5033288;28;20415;-77
2022/11/22 08:02:32;;;;;;;6.60;2.70;;;6.60;91.20;;;;;;5036687;28;20418;-76
2022/11/22 08:05:01;;;;;;;5.53;2.60;;;6.60;91.30;;;;;;5024566;28;20438;-77
2022/11/22 08:07:27;;;;;;;8.57;2.80;;;6.70;91.00;;;;;;5024447;28;20430;-77
2022/11/22 08:09:54;;;;;;;6.15;2.40;;;6.70;90.80;;;;;;5032165;28;20423;-77
2022/11/22 08:12:21;;;;;;;9.30;2.75;;;6.80;90.40;;;;;;5040062;28;20428;-77
2022/11/22 08:14:48;;;;;;;5.95;2.70;;;7.00;90.30;;;;;;5043731;28;20441;-78
2022/11/22 08:17:14;;;;;;;7.07;2.38;;;7.20;89.60;;;;;;5046250;28;20431;-77
2022/11/22 08:19:41;;;;;;;5.55;2.60;;;7.30;87.90;;;;;;5014019;28;20499;-76
2022/11/22 08:22:09;;;;;;;7.35;2.55;;;7.50;87.00;;;;;;5035406;28;20439;-77
2022/11/22 08:24:36;;;;;;;6.03;2.50;;;7.70;87.40;;;;;;5032912;28;20419;-77
2022/11/22 08:27:02;;;;;;;5.77;2.10;;;7.90;84.50;;;;;;5017192;28;20428;-78
2022/11/22 08:29:29;;;;;;;5.90;2.30;;;8.00;84.60;;;;;;5029453;28;20437;-77
2022/11/22 08:31:56;;;;;;;4.60;1.92;;;8.20;83.90;;;;;;5022119;28;20481;-77
2022/11/22 08:34:23;;;;;;;4.80;2.20;;;8.30;80.50;;;;;;5010350;28;20424;-76
2022/11/22 08:36:49;;;;;;;7.30;2.15;;;8.40;80.70;;;;;;5023570;28;20901;-77
2022/11/22 08:39:18;;;;;;;4.85;1.90;;;8.50;78.30;;;;;;5018377;28;20440;-77
2022/11/22 08:41:44;;;;;;;5.85;2.10;;;8.60;77.60;;;;;;5020776;28;20917;-77
2022/11/22 08:44:13;;;;;;;4.65;2.10;;;8.60;78.10;;;;;;5023211;28;20444;-76
2022/11/22 08:46:40;;;;;;;6.45;2.10;;;8.50;79.10;;;;;;5021659;28;20919;-76
2022/11/22 08:49:06;;;;;;;4.55;1.70;;;8.50;77.40;;;;;;5019793;28;20434;-76
2022/11/22 08:51:35;;;;;;;4.28;1.98;;;8.30;76.80;;;;;;5015989;28;20480;-76
2022/11/22 08:54:02;;;;;;;4.50;1.90;;;8.20;77.60;;;;;;5020961;28;20465;-75
2022/11/22 08:56:30;;;;;;;5.45;2.10;;;8.10;77.80;;;;;;5017581;28;20413;-76
2022/11/22 08:58:57;;;;;;;5.77;2.00;;;8.00;78.40;;;;;;5021088;28;20434;-76
2022/11/22 09:01:24;;;;;;;6.60;2.00;;;8.00;78.80;;;;;;5024551;28;20505;-75
2022/11/22 09:03:51;;;;;;;5.15;1.90;;;8.00;77.20;;;;;;5021275;28;20446;-76
2022/11/22 09:06:19;;;;;;;5.72;2.13;;;8.00;78.00;;;;;;5020477;28;20939;-77
2022/11/22 09:08:46;;;;;;;4.18;1.60;;;8.00;78.20;;;;;;5014531;28;20435;-75
2022/11/22 09:11:15;;;;;;;4.23;1.70;;;8.10;77.60;;;;;;5011494;28;20528;-77
2022/11/22 09:13:44;;;;;;;3.67;1.90;;;8.10;78.50;;;;;;5024192;28;20433;-75
2022/11/22 09:16:13;;;;;;;5.10;1.70;;;8.40;78.10;;;;;;5023951;28;20522;-75
2022/11/22 09:18:41;;;;;;;3.50;1.60;;;8.80;74.30;;;;;;5025274;28;20891;-74
2022/11/22 09:21:09;;;;;;;4.90;1.70;;;9.20;72.80;;;;;;5011738;28;20888;-75
2022/11/22 09:23:36;;;;;;;5.40;1.90;;;9.40;71.50;;;;;;5019347;28;20422;-75
2022/11/22 09:26:05;;;;;;;4.60;1.67;;;9.50;71.50;;;;;;5024902;28;20534;-75
2022/11/22 09:28:32;;;;;;;3.78;1.80;;;9.50;70.00;;;;;;5061915;22;20458;-73
2022/11/22 09:31:03;;;;;;;4.93;1.67;;;9.50;70.30;;;;;;5020260;28;20415;-74
2022/11/22 09:33:31;;;;;;;4.65;1.80;;;9.60;70.80;;;;;;5019091;28;20439;-73
2022/11/22 09:36:01;;;;;;;5.63;1.67;;;9.90;70.30;;;;;;5022114;28;20805;-74
2022/11/22 09:38:28;;;;;;;4.07;1.90;;;10.00;67.20;;;;;;5026502;28;20457;-72
2022/11/22 09:40:55;;;;;;;3.50;1.50;;;10.10;68.40;;;;;;5023941;28;20985;-74
2022/11/22 09:43:28;;;;;;;6.55;1.77;;;10.20;66.00;;;;;;5007272;28;20456;-74
2022/11/22 09:46:22;;;;;;;4.83;1.70;;;10.10;66.50;;;;;;5007460;28;20796;-75
2022/11/22 09:49:10;;;;;;;4.87;1.80;;;9.80;67.00;;;;;;5019920;28;20434;-74
2022/11/22 09:51:41;;;;;;;2.85;1.55;;;9.50;68.20;;;;;;5022048;28;20414;-75
2022/11/22 09:54:11;;;;;;;5.38;1.60;;;9.20;69.70;;;;;;5011190;28;20442;-75
2022/11/22 09:56:39;;;;;;;5.15;1.80;;;9.00;70.80;;;;;;5027362;28;20427;-74
2022/11/22 09:59:11;;;;;;;3.78;1.63;;;8.80;71.60;;;;;;5007598;28;20977;-75
2022/11/22 10:01:43;;;;;;;4.10;1.90;;;8.70;72.70;;;;;;5023991;28;20439;-75
2022/11/22 10:04:14;;;;;;;4.68;1.67;;;8.70;72.70;;;;;;5025258;28;20438;-75
2022/11/22 10:06:43;;;;;;;4.03;1.75;;;8.70;73.60;;;;;;5021207;28;20439;-75
2022/11/22 10:09:25;;;;;;;3.78;1.33;;;8.70;73.50;;;;;;5015946;28;21071;-75
2022/11/22 10:11:57;;;;;;;4.93;1.50;;;8.70;73.20;;;;;;5014178;28;20422;-75
2022/11/22 10:14:35;;;;;;;4.00;2.05;;;8.60;73.80;;;;;;5017484;28;20533;-75
2022/11/22 10:17:18;;;;;;;5.10;1.70;;;8.60;74.40;;;;;;5026932;28;20430;-74
2022/11/22 10:19:50;;;;;;;4.93;1.80;;;8.60;73.80;;;;;;5023213;28;20982;-74
2022/11/22 10:22:18;;;;;;;2.97;1.10;;;8.70;73.80;;;;;;5022498;28;20767;-73
2022/11/22 10:24:45;;;;;;;6.03;2.20;;;8.70;72.90;;;;;;5032627;28;20424;-74
2022/11/22 10:27:13;;;;;;;4.30;1.90;;;8.70;73.60;;;;;;5010844;28;20431;-73
2022/11/22 10:29:46;;;;;;;2.40;1.80;;;8.80;74.80;;;;;;5025249;28;20838;-75
2022/11/22 10:32:23;;;;;;;4.13;2.00;;;8.80;74.50;;;;;;5021925;28;20436;-74
2022/11/22 10:35:04;;;;;;;4.50;1.50;;;8.90;74.20;;;;;;5029076;28;20443;-74
2022/11/22 10:37:38;;;;;;;2.60;1.30;;;9.00;72.80;;;;;;5026929;28;20429;-74
2022/11/22 10:40:16;;;;;;;2.10;1.35;;;9.00;72.80;;;;;;5028380;28;20445;-74
2022/11/22 10:43:01;;;;;;;4.78;1.50;;;8.90;73.20;;;;;;5018806;28;20439;-75
2022/11/22 10:45:33;;;;;;;3.03;1.40;;;8.90;72.90;;;;;;5024340;28;20911;-75
2022/11/22 10:48:10;;;;;;;3.57;1.33;;;8.90;73.10;;;;;;5029909;28;20442;-74
2022/11/22 10:50:48;;;;;;;1.80;1.27;;;8.90;73.40;;;;;;5029993;28;20434;-75
2022/11/22 10:53:25;;;;;;;3.00;1.30;;;8.90;73.30;;;;;;5013925;28;20421;-74
2022/11/22 10:55:58;;;;;;;2.38;1.02;;;8.90;73.00;;;;;;5010461;28;20420;-74
2022/11/22 10:58:37;;;;;;;3.40;1.10;;;9.00;72.50;;;;;;5024735;28;20433;-74
2022/11/22 11:01:12;;;;;;;2.15;1.05;;;9.10;72.80;;;;;;5011029;28;20930;-74
2022/11/22 11:03:44;;;;;;;3.10;1.27;;;9.30;71.20;;;;;;5017456;28;20441;-74
2022/11/22 11:06:18;;;;;;;2.35;1.02;;;9.40;71.10;;;;;;5029112;28;20510;-75
2022/11/22 11:08:49;;;;;;;1.75;1.00;;;9.60;71.30;;;;;;5014309;28;20433;-75
2022/11/22 11:11:16;;;;;;;2.65;0.90;;;9.80;70.30;;;;;;5017599;28;20430;-73
2022/11/22 11:13:46;;;;;;;2.42;1.20;;;9.80;68.90;;;;;;5018908;28;20533;-76
2022/11/22 11:16:17;;;;;;;2.28;1.00;;;9.70;69.40;;;;;;5011527;28;20939;-76
2022/11/22 11:18:50;;;;;;;2.47;1.40;;;9.60;70.10;;;;;;5020426;28;20429;-74
2022/11/22 11:21:17;;;;;;;2.22;1.20;;;9.70;70.60;;;;;;5010799;28;20421;-71
2022/11/22 11:23:44;;;;;;;1.80;1.02;;;9.80;70.70;;;;;;5022173;28;20436;-74
2022/11/22 11:26:23;;;;;;;2.80;1.10;;;10.00;68.50;;;;;;5010450;28;20434;-74
2022/11/22 11:28:50;;;;;;;3.60;1.40;;;9.90;67.90;;;;;;5014531;28;20427;-74
2022/11/22 11:31:20;;;;;;;1.70;0.90;;;9.80;68.00;;;;;;5016663;28;20500;-73
2022/11/22 11:33:48;;;;;;;2.13;0.98;;;9.70;68.40;;;;;;5019742;28;20440;-72
2022/11/22 11:36:18;;;;;;;2.70;1.20;;;9.60;68.90;;;;;;5029058;28;20833;-73
2022/11/22 11:38:52;;;;;;;2.55;1.30;;;9.40;70.20;;;;;;5009548;28;20903;-73
2022/11/22 11:41:23;;;;;;;2.00;0.90;;;9.40;70.80;;;;;;5009888;28;20421;-73
2022/11/22 11:43:51;;;;;;;3.20;1.20;;;9.40;71.00;;;;;;5017598;28;20439;-72
2022/11/22 11:46:20;;;;;;;1.90;1.30;;;9.30;70.90;;;;;;5013175;28;20435;-75
2022/11/22 11:48:49;;;;;;;2.70;1.20;;;9.40;70.80;;;;;;5024997;28;20434;-73
2022/11/22 11:51:19;;;;;;;1.63;1.00;;;9.40;70.50;;;;;;5022622;28;20936;-74
2022/11/22 11:53:56;;;;;;;1.70;1.15;;;9.50;70.40;;;;;;5024458;28;20431;-72
2022/11/22 11:56:50;;;;;;;2.15;1.30;;;9.50;70.90;;;;;;5012804;28;20434;-72
2022/11/22 11:59:18;;;;;;;2.75;1.10;;;9.70;69.90;;;;;;5008638;28;20425;-75
2022/11/22 12:01:54;;;;;;;3.13;0.98;;;9.80;69.60;;;;;;5010981;28;20491;-74
2022/11/22 12:04:25;;;;;;;2.42;1.35;;;10.20;68.50;;;;;;5021015;28;20521;-75
2022/11/22 12:06:57;;;;;;;3.37;1.40;;;10.40;67.70;;;;;;5028023;28;20557;-74
2022/11/22 12:09:29;;;;;;;1.77;1.00;;;10.60;66.50;;;;;;5024928;28;20429;-73
2022/11/22 12:12:02;;;;;;;3.53;1.20;;;10.50;65.70;;;;;;5019527;28;20419;-73
2022/11/22 12:14:30;;;;;;;1.58;0.93;;;10.10;66.20;;;;;;5023385;28;20425;-73
2022/11/22 12:17:01;;;;;;;1.38;0.90;;;10.10;67.70;;;;;;5016478;28;20948;-73
2022/11/22 12:19:36;;;;;;;3.67;1.10;;;10.10;67.50;;;;;;5028281;28;20419;-72
2022/11/22 12:22:13;;;;;;;1.92;1.20;;;9.90;68.20;;;;;;5020041;28;20430;-71
2022/11/22 12:24:42;;;;;;;2.88;1.20;;;9.80;68.70;;;;;;5021561;28;20497;-71
2022/11/22 12:27:10;;;;;;;2.97;1.38;;;9.80;68.60;;;;;;5020686;28;20435;-70
2022/11/22 12:29:40;;;;;;;2.40;1.00;;;9.70;69.70;;;;;;5009181;28;20984;-71
2022/11/22 12:32:12;;;;;;;2.22;1.08;;;9.70;69.70;;;;;;5020832;28;21078;-70
2022/11/22 12:34:51;;;;;;;2.38;1.10;;;9.60;70.40;;;;;;5027598;28;20431;-72
2022/11/22 12:37:20;;;;;;;2.83;1.00;;;9.60;71.10;;;;;;5009001;28;20528;-72
2022/11/22 12:39:48;;;;;;;2.50;1.00;;;9.50;71.80;;;;;;5008166;28;20434;-72
2022/11/22 12:42:21;;;;;;;2.25;1.38;;;9.50;72.80;;;;;;5014510;28;20419;-72
2022/11/22 12:44:53;;;;;;;3.13;1.13;;;9.40;73.50;;;;;;5014059;28;20439;-71
2022/11/22 12:47:22;;;;;;;2.97;1.30;;;9.30;73.80;;;;;;5021497;28;20441;-70
2022/11/22 12:49:55;;;;;;;3.38;1.42;;;9.30;74.20;;;;;;5017410;28;20836;-71
2022/11/22 12:52:27;;;;;;;3.00;1.30;;;9.30;73.80;;;;;;5022169;28;20441;-71
2022/11/22 12:55:02;;;;;;;2.20;1.30;;;9.30;74.00;;;;;;5014485;28;20419;-71
2022/11/22 12:57:36;;;;;;;3.70;1.10;;;9.30;74.00;;;;;;5016998;28;20439;-71
2022/11/22 13:00:06;;;;;;;3.88;1.35;;;9.30;73.80;;;;;;5026982;28;20907;-70
2022/11/22 13:02:38;;;;;;;2.67;1.30;;;9.30;74.30;;;;;;5019530;28;20442;-71
2022/11/22 13:05:13;;;;;;;3.42;1.10;;;9.30;74.10;;;;;;5027657;28;20423;-70
2022/11/22 13:07:51;;;;;;;3.08;1.20;;;9.30;74.40;;;;;;5025936;28;20419;-71
2022/11/22 13:10:28;;;;;;;2.70;1.10;;;9.30;74.80;;;;;;5007993;28;20443;-71
2022/11/22 13:12:58;;;;;;;3.67;1.40;;;9.20;75.30;;;;;;5016023;28;20435;-71
2022/11/22 13:15:28;;;;;;;3.70;1.33;;;9.20;76.10;;;;;;5025873;28;20430;-71
2022/11/22 13:17:55;;;;;;;3.70;1.30;;;9.20;76.60;;;;;;5025094;28;20415;-72
2022/11/22 13:20:26;;;;;;;2.67;1.00;;;9.20;76.40;;;;;;5026494;28;20526;-71